sensor_id;sensor_type;location;lat;lon;timestamp;temperature;humidity
23156;DHT22;11746;50.876;4.246;2022-11-20T00:00:54;5.30;99.90
23156;DHT22;11746;50.876;4.246;2022-11-20T00:03:20;5.40;99.90
23156;DHT22;11746;50.876;4.246;2022-11-20T00:05:49;5.40;99.90
23156;DHT22;11746;50.876;4.246;2022-11-20T00:08:17;5.20;99.90
23156;DHT22;11746;50.876;4.246;2022-11-20T00:10:45;5.20;99.90
23156;DHT22;11746;50.876;4.246;2022-11-20T00:13:11;5.20;99.90
23156;DHT22;11746;50.876;4.246;2022-11-20T00:15:36;5.20;99.90
23156;DHT22;11746;50.876;4.246;2022-11-20T00:18:02;5.30;99.90
23156;DHT22;11746;50.876;4.246;2022-11-20T00:20:32;5.30;99.90
23156;DHT22;11746;50.876;4.246;2022-11-20T00:22:59;5.40;99.90
23156;DHT22;11746;50.876;4.246;2022-11-20T00:25:25;5.40;99.90
23156;DHT22;11746;50.876;4.246;2022-11-20T00:27:51;5.40;99.90
23156;DHT22;11746;50.876;4.246;2022-11-20T00:30:17;5.40;99.90
23156;DHT22;11746;50.876;4.246;2022-11-20T00:32:43;5.40;99.90
23156;DHT22;11746;50.876;4.246;2022-11-20T00:35:09;5.30;99.90
23156;DHT22;11746;50.876;4.246;2022-11-20T00:37:35;5.20;99.90
23156;DHT22;11746;50.876;4.246;2022-11-20T00:40:01;5.20;99.90
23156;DHT22;11746;50.876;4.246;2022-11-20T00:42:26;5.20;99.90
23156;DHT22;11746;50.876;4.246;2022-11-20T00:44:52;5.30;99.90
23156;DHT22;11746;50.876;4.246;2022-11-20T00:47:18;5.30;99.90
23156;DHT22;11746;50.876;4.246;2022-11-20T00:49:44;5.20;99.90
23156;DHT22;11746;50.876;4.246;2022-11-20T00:52:09;5.20;99.90
23156;DHT22;11746;50.876;4.246;2022-11-20T00:54:38;5.20;99.90
23156;DHT22;11746;50.876;4.246;2022-11-20T00:57:03;5.20;99.90
23156;DHT22;11746;50.876;4.246;2022-11-20T00:59:30;5.30;99.90
23156;DHT22;11746;50.876;4.246;2022-11-20T01:01:55;5.30;99.90
23156;DHT22;11746;50.876;4.246;2022-11-20T01:04:24;5.40;99.90
23156;DHT22;11746;50.876;4.246;2022-11-20T01:06:49;5.50;99.90
23156;DHT22;11746;50.876;4.246;2022-11-20T01:09:16;5.50;99.90
23156;DHT22;11746;50.876;4.246;2022-11-20T01:11:43;5.40;99.90
23156;DHT22;11746;50.876;4.246;2022-11-20T01:14:15;5.20;99.90
23156;DHT22;11746;50.876;4.246;2022-11-20T01:16:51;5.10;99.90
23156;DHT22;11746;50.876;4.246;2022-11-20T01:19:22;5.10;99.90
23156;DHT22;11746;50.876;4.246;2022-11-20T01:21:54;5.20;99.90
23156;DHT22;11746;50.876;4.246;2022-11-20T01:24:24;5.10;99.90
23156;DHT22;11746;50.876;4.246;2022-11-20T01:26:51;5.20;99.90
23156;DHT22;11746;50.876;4.246;2022-11-20T01:29:20;5.20;99.90
23156;DHT22;11746;50.876;4.246;2022-11-20T01:31:46;5.30;99.90
23156;DHT22;11746;50.876;4.246;2022-11-20T01:34:15;5.30;99.90
23156;DHT22;11746;50.876;4.246;2022-11-20T01:36:42;5.30;99.90
23156;DHT22;11746;50.876;4.246;2022-11-20T01:39:17;5.30;99.90
23156;DHT22;11746;50.876;4.246;2022-11-20T01:41:46;5.20;99.90
23156;DHT22;11746;50.876;4.246;2022-11-20T01:44:58;5.20;99.90
23156;DHT22;11746;50.876;4.246;2022-11-20T01:47:41;5.20;99.90
23156;DHT22;11746;50.876;4.246;2022-11-20T01:50:21;5.30;99.90
23156;DHT22;11746;50.876;4.246;2022-11-20T01:52:56;5.10;99.90
23156;DHT22;11746;50.876;4.246;2022-11-20T01:55:34;5.10;99.90
23156;DHT22;11746;50.876;4.246;2022-11-20T01:58:01;5.10;99.90
23156;DHT22;11746;50.876;4.246;2022-11-20T02:00:27;5.00;99.90
23156;DHT22;11746;50.876;4.246;2022-11-20T02:02:58;5.00;99.90
23156;DHT22;11746;50.876;4.246;2022-11-20T02:08:04;5.10;99.90
23156;DHT22;11746;50.876;4.246;2022-11-20T02:10:31;5.00;99.90
23156;DHT22;11746;50.876;4.246;2022-11-20T02:12:57;5.00;99.90
23156;DHT22;11746;50.876;4.246;2022-11-20T02:16:04;4.80;99.90
23156;DHT22;11746;50.876;4.246;2022-11-20T02:18:35;4.90;99.90
23156;DHT22;11746;50.876;4.246;2022-11-20T02:21:08;4.90;99.90
23156;DHT22;11746;50.876;4.246;2022-11-20T02:26:28;4.80;99.90
23156;DHT22;11746;50.876;4.246;2022-11-20T02:28:58;4.90;99.90
23156;DHT22;11746;50.876;4.246;2022-11-20T02:31:25;5.00;99.90
23156;DHT22;11746;50.876;4.246;2022-11-20T02:33:58;4.80;99.90
23156;DHT22;11746;50.876;4.246;2022-11-20T02:36:26;4.80;99.90
23156;DHT22;11746;50.876;4.246;2022-11-20T02:38:55;4.70;99.90
23156;DHT22;11746;50.876;4.246;2022-11-20T02:41:21;4.60;99.90
23156;DHT22;11746;50.876;4.246;2022-11-20T02:43:47;4.60;99.90
23156;DHT22;11746;50.876;4.246;2022-11-20T02:46:15;4.60;99.90
23156;DHT22;11746;50.876;4.246;2022-11-20T02:48:41;4.60;99.90
23156;DHT22;11746;50.876;4.246;2022-11-20T02:51:07;4.60;99.90
23156;DHT22;11746;50.876;4.246;2022-11-20T02:53:35;4.50;99.90
23156;DHT22;11746;50.876;4.246;2022-11-20T02:56:00;4.50;99.90
23156;DHT22;11746;50.876;4.246;2022-11-20T02:58:26;4.70;99.90
23156;DHT22;11746;50.876;4.246;2022-11-20T03:00:52;4.70;99.90
23156;DHT22;11746;50.876;4.246;2022-11-20T03:03:20;4.80;99.90
23156;DHT22;11746;50.876;4.246;2022-11-20T03:05:46;4.90;99.90
23156;DHT22;11746;50.876;4.246;2022-11-20T03:08:16;4.90;99.90
23156;DHT22;11746;50.876;4.246;2022-11-20T03:10:44;4.80;99.90
23156;DHT22;11746;50.876;4.246;2022-11-20T03:13:12;4.80;99.90
23156;DHT22;11746;50.876;4.246;2022-11-20T03:15:39;4.90;99.90
23156;DHT22;11746;50.876;4.246;2022-11-20T03:18:04;4.80;99.90
23156;DHT22;11746;50.876;4.246;2022-11-20T03:20:32;4.90;99.90
23156;DHT22;11746;50.876;4.246;2022-11-20T03:22:58;4.90;99.90
23156;DHT22;11746;50.876;4.246;2022-11-20T03:25:25;4.90;99.90
23156;DHT22;11746;50.876;4.246;2022-11-20T03:27:56;4.90;99.90
23156;DHT22;11746;50.876;4.246;2022-11-20T03:30:22;4.80;99.90
23156;DHT22;11746;50.876;4.246;2022-11-20T03:32:48;4.90;99.90
23156;DHT22;11746;50.876;4.246;2022-11-20T03:35:14;4.90;99.90
23156;DHT22;11746;50.876;4.246;2022-11-20T03:37:40;5.00;99.90
23156;DHT22;11746;50.876;4.246;2022-11-20T03:40:06;5.00;99.90
23156;DHT22;11746;50.876;4.246;2022-11-20T03:42:33;5.10;99.90
23156;DHT22;11746;50.876;4.246;2022-11-20T03:45:11;5.20;99.90
23156;DHT22;11746;50.876;4.246;2022-11-20T03:47:37;5.20;99.90
23156;DHT22;11746;50.876;4.246;2022-11-20T03:50:03;5.10;99.90
23156;DHT22;11746;50.876;4.246;2022-11-20T03:52:29;5.10;99.90
23156;DHT22;11746;50.876;4.246;2022-11-20T03:54:57;5.10;99.90
23156;DHT22;11746;50.876;4.246;2022-11-20T03:57:26;5.10;99.90
23156;DHT22;11746;50.876;4.246;2022-11-20T03:59:52;5.10;99.90
23156;DHT22;11746;50.876;4.246;2022-11-20T04:02:18;5.20;99.90
23156;DHT22;11746;50.876;4.246;2022-11-20T04:04:44;5.20;99.90
23156;DHT22;11746;50.876;4.246;2022-11-20T04:07:10;5.40;99.90
23156;DHT22;11746;50.876;4.246;2022-11-20T04:09:38;5.30;99.90
23156;DHT22;11746;50.876;4.246;2022-11-20T04:12:04;5.30;99.90
23156;DHT22;11746;50.876;4.246;2022-11-20T04:14:30;5.30;99.90
23156;DHT22;11746;50.876;4.246;2022-11-20T04:16:56;5.30;99.90
23156;DHT22;11746;50.876;4.246;2022-11-20T04:19:21;5.30;99.90
23156;DHT22;11746;50.876;4.246;2022-11-20T04:21:52;5.40;99.90
23156;DHT22;11746;50.876;4.246;2022-11-20T04:24:18;5.40;99.90
23156;DHT22;11746;50.876;4.246;2022-11-20T04:26:44;5.40;99.90
23156;DHT22;11746;50.876;4.246;2022-11-20T04:29:11;5.50;99.90
23156;DHT22;11746;50.876;4.246;2022-11-20T04:31:40;5.40;99.90
23156;DHT22;11746;50.876;4.246;2022-11-20T04:34:07;5.30;99.90
23156;DHT22;11746;50.876;4.246;2022-11-20T04:36:33;5.40;99.90
23156;DHT22;11746;50.876;4.246;2022-11-20T04:39:02;5.40;99.90
23156;DHT22;11746;50.876;4.246;2022-11-20T04:41:32;5.50;99.90
23156;DHT22;11746;50.876;4.246;2022-11-20T04:44:01;5.40;99.90
23156;DHT22;11746;50.876;4.246;2022-11-20T04:46:40;5.40;99.90
23156;DHT22;11746;50.876;4.246;2022-11-20T04:49:11;5.40;99.90
23156;DHT22;11746;50.876;4.246;2022-11-20T04:51:37;5.40;99.90
23156;DHT22;11746;50.876;4.246;2022-11-20T04:54:05;5.40;99.90
23156;DHT22;11746;50.876;4.246;2022-11-20T04:56:31;5.40;99.90
23156;DHT22;11746;50.876;4.246;2022-11-20T04:59:00;5.50;99.90
23156;DHT22;11746;50.876;4.246;2022-11-20T05:01:26;5.60;99.90
23156;DHT22;11746;50.876;4.246;2022-11-20T05:03:52;5.60;99.90
23156;DHT22;11746;50.876;4.246;2022-11-20T05:06:20;5.60;99.90
23156;DHT22;11746;50.876;4.246;2022-11-20T05:08:46;5.70;99.90
23156;DHT22;11746;50.876;4.246;2022-11-20T05:11:14;5.70;99.90
23156;DHT22;11746;50.876;4.246;2022-11-20T05:13:40;5.70;99.90
23156;DHT22;11746;50.876;4.246;2022-11-20T05:16:09;5.60;99.90
23156;DHT22;11746;50.876;4.246;2022-11-20T05:18:37;5.60;99.90
23156;DHT22;11746;50.876;4.246;2022-11-20T05:21:03;5.60;99.90
23156;DHT22;11746;50.876;4.246;2022-11-20T05:23:35;5.60;99.90
23156;DHT22;11746;50.876;4.246;2022-11-20T05:26:05;5.70;99.90
23156;DHT22;11746;50.876;4.246;2022-11-20T05:28:34;5.80;99.90
23156;DHT22;11746;50.876;4.246;2022-11-20T05:31:08;5.80;99.90
23156;DHT22;11746;50.876;4.246;2022-11-20T05:33:38;5.80;99.90
23156;DHT22;11746;50.876;4.246;2022-11-20T05:36:05;5.80;99.90
23156;DHT22;11746;50.876;4.246;2022-11-20T05:38:33;5.90;99.90
23156;DHT22;11746;50.876;4.246;2022-11-20T05:43:34;5.80;99.90
23156;DHT22;11746;50.876;4.246;2022-11-20T05:46:01;5.80;99.90
23156;DHT22;11746;50.876;4.246;2022-11-20T05:48:30;5.80;99.90
23156;DHT22;11746;50.876;4.246;2022-11-20T05:50:58;5.80;99.90
23156;DHT22;11746;50.876;4.246;2022-11-20T05:53:25;5.90;99.90
23156;DHT22;11746;50.876;4.246;2022-11-20T05:55:58;5.90;99.90
23156;DHT22;11746;50.876;4.246;2022-11-20T05:58:24;5.90;99.90
23156;DHT22;11746;50.876;4.246;2022-11-20T06:00:52;5.80;99.90
23156;DHT22;11746;50.876;4.246;2022-11-20T06:03:21;5.70;99.90
23156;DHT22;11746;50.876;4.246;2022-11-20T06:05:47;5.70;99.90
23156;DHT22;11746;50.876;4.246;2022-11-20T06:08:15;5.70;99.90
23156;DHT22;11746;50.876;4.246;2022-11-20T06:10:41;5.60;99.90
23156;DHT22;11746;50.876;4.246;2022-11-20T06:13:07;5.60;99.90
23156;DHT22;11746;50.876;4.246;2022-11-20T06:15:38;5.60;99.90
23156;DHT22;11746;50.876;4.246;2022-11-20T06:18:06;5.70;99.90
23156;DHT22;11746;50.876;4.246;2022-11-20T06:20:33;5.70;99.90
23156;DHT22;11746;50.876;4.246;2022-11-20T06:22:59;5.70;99.90
23156;DHT22;11746;50.876;4.246;2022-11-20T06:25:25;5.70;99.90
23156;DHT22;11746;50.876;4.246;2022-11-20T06:27:50;5.80;99.90
23156;DHT22;11746;50.876;4.246;2022-11-20T06:30:17;5.70;99.90
23156;DHT22;11746;50.876;4.246;2022-11-20T06:32:42;5.80;99.90
23156;DHT22;11746;50.876;4.246;2022-11-20T06:35:09;5.80;99.90
23156;DHT22;11746;50.876;4.246;2022-11-20T06:37:34;5.80;99.90
23156;DHT22;11746;50.876;4.246;2022-11-20T06:40:00;5.90;99.90
23156;DHT22;11746;50.876;4.246;2022-11-20T06:42:26;6.00;99.90
23156;DHT22;11746;50.876;4.246;2022-11-20T06:44:52;6.00;99.90
23156;DHT22;11746;50.876;4.246;2022-11-20T06:47:20;6.00;99.90
23156;DHT22;11746;50.876;4.246;2022-11-20T06:49:46;6.00;99.90
23156;DHT22;11746;50.876;4.246;2022-11-20T06:52:12;6.10;99.90
23156;DHT22;11746;50.876;4.246;2022-11-20T06:54:40;6.20;99.90
23156;DHT22;11746;50.876;4.246;2022-11-20T06:57:05;6.30;99.90
23156;DHT22;11746;50.876;4.246;2022-11-20T06:59:31;6.30;99.90
23156;DHT22;11746;50.876;4.246;2022-11-20T07:01:57;6.10;99.90
23156;DHT22;11746;50.876;4.246;2022-11-20T07:04:22;6.10;99.90
23156;DHT22;11746;50.876;4.246;2022-11-20T07:06:51;6.10;99.90
23156;DHT22;11746;50.876;4.246;2022-11-20T07:09:19;6.00;99.90
23156;DHT22;11746;50.876;4.246;2022-11-20T07:11:45;6.00;99.90
23156;DHT22;11746;50.876;4.246;2022-11-20T07:14:10;6.00;99.90
23156;DHT22;11746;50.876;4.246;2022-11-20T07:16:39;6.20;99.90
23156;DHT22;11746;50.876;4.246;2022-11-20T07:19:04;6.10;99.90
23156;DHT22;11746;50.876;4.246;2022-11-20T07:21:30;6.20;99.90
23156;DHT22;11746;50.876;4.246;2022-11-20T07:23:56;6.20;99.90
23156;DHT22;11746;50.876;4.246;2022-11-20T07:26:22;6.20;99.90
23156;DHT22;11746;50.876;4.246;2022-11-20T07:28:47;6.20;99.90
23156;DHT22;11746;50.876;4.246;2022-11-20T07:31:13;6.30;99.90
23156;DHT22;11746;50.876;4.246;2022-11-20T07:33:39;6.30;99.90
23156;DHT22;11746;50.876;4.246;2022-11-20T07:36:07;6.20;99.90
23156;DHT22;11746;50.876;4.246;2022-11-20T07:38:32;6.40;99.90
23156;DHT22;11746;50.876;4.246;2022-11-20T07:40:59;6.40;99.90
23156;DHT22;11746;50.876;4.246;2022-11-20T07:43:27;6.40;99.90
23156;DHT22;11746;50.876;4.246;2022-11-20T07:45:57;6.30;99.90
23156;DHT22;11746;50.876;4.246;2022-11-20T07:48:24;6.40;99.90
23156;DHT22;11746;50.876;4.246;2022-11-20T07:50:52;6.40;99.90
23156;DHT22;11746;50.876;4.246;2022-11-20T07:53:18;6.50;99.90
23156;DHT22;11746;50.876;4.246;2022-11-20T07:55:46;6.40;99.90
23156;DHT22;11746;50.876;4.246;2022-11-20T07:58:14;6.50;99.90
23156;DHT22;11746;50.876;4.246;2022-11-20T08:00:40;6.60;99.90
23156;DHT22;11746;50.876;4.246;2022-11-20T08:03:06;6.60;99.90
23156;DHT22;11746;50.876;4.246;2022-11-20T08:05:35;6.50;99.90
23156;DHT22;11746;50.876;4.246;2022-11-20T08:08:03;6.50;99.90
23156;DHT22;11746;50.876;4.246;2022-11-20T08:10:28;6.50;99.90
23156;DHT22;11746;50.876;4.246;2022-11-20T08:12:54;6.60;99.90
23156;DHT22;11746;50.876;4.246;2022-11-20T08:15:39;6.50;99.90
23156;DHT22;11746;50.876;4.246;2022-11-20T08:18:10;6.60;99.90
23156;DHT22;11746;50.876;4.246;2022-11-20T08:20:39;6.60;99.90
23156;DHT22;11746;50.876;4.246;2022-11-20T08:23:07;6.50;99.90
23156;DHT22;11746;50.876;4.246;2022-11-20T08:25:37;6.50;99.90
23156;DHT22;11746;50.876;4.246;2022-11-20T08:28:11;6.50;99.90
23156;DHT22;11746;50.876;4.246;2022-11-20T08:30:39;6.70;99.90
23156;DHT22;11746;50.876;4.246;2022-11-20T08:33:07;6.70;99.90
23156;DHT22;11746;50.876;4.246;2022-11-20T08:35:35;6.70;99.90
23156;DHT22;11746;50.876;4.246;2022-11-20T08:38:04;6.80;99.90
23156;DHT22;11746;50.876;4.246;2022-11-20T08:40:30;6.80;99.90
23156;DHT22;11746;50.876;4.246;2022-11-20T08:42:57;7.00;99.90
23156;DHT22;11746;50.876;4.246;2022-11-20T08:45:26;7.10;99.90
23156;DHT22;11746;50.876;4.246;2022-11-20T08:47:52;7.10;99.90
23156;DHT22;11746;50.876;4.246;2022-11-20T08:50:18;7.00;99.90
23156;DHT22;11746;50.876;4.246;2022-11-20T08:52:46;6.90;99.90
23156;DHT22;11746;50.876;4.246;2022-11-20T08:55:12;7.10;99.90
23156;DHT22;11746;50.876;4.246;2022-11-20T08:57:38;7.00;99.90
23156;DHT22;11746;50.876;4.246;2022-11-20T09:00:06;7.00;99.90
23156;DHT22;11746;50.876;4.246;2022-11-20T09:02:34;7.00;99.90
23156;DHT22;11746;50.876;4.246;2022-11-20T09:05:00;7.10;99.90
23156;DHT22;11746;50.876;4.246;2022-11-20T09:07:29;7.10;99.90
23156;DHT22;11746;50.876;4.246;2022-11-20T09:09:57;7.20;99.90
23156;DHT22;11746;50.876;4.246;2022-11-20T09:12:26;7.30;99.90
23156;DHT22;11746;50.876;4.246;2022-11-20T09:14:52;7.30;99.90
23156;DHT22;11746;50.876;4.246;2022-11-20T09:17:18;7.30;99.90
23156;DHT22;11746;50.876;4.246;2022-11-20T09:19:48;7.30;99.90
23156;DHT22;11746;50.876;4.246;2022-11-20T09:22:14;7.30;99.90
23156;DHT22;11746;50.876;4.246;2022-11-20T09:24:41;7.30;99.90
23156;DHT22;11746;50.876;4.246;2022-11-20T09:27:08;7.50;99.90
23156;DHT22;11746;50.876;4.246;2022-11-20T09:29:34;7.60;99.90
23156;DHT22;11746;50.876;4.246;2022-11-20T09:31:59;7.50;99.90
23156;DHT22;11746;50.876;4.246;2022-11-20T09:34:25;7.50;99.90
23156;DHT22;11746;50.876;4.246;2022-11-20T09:36:53;7.50;99.90
23156;DHT22;11746;50.876;4.246;2022-11-20T09:39:19;7.50;99.90
23156;DHT22;11746;50.876;4.246;2022-11-20T09:50:32;7.90;99.90
23156;DHT22;11746;50.876;4.246;2022-11-20T09:53:30;8.00;99.90
23156;DHT22;11746;50.876;4.246;2022-11-20T09:56:01;8.00;99.90
23156;DHT22;11746;50.876;4.246;2022-11-20T09:58:40;8.10;99.90
23156;DHT22;11746;50.876;4.246;2022-11-20T10:01:37;8.20;99.90
23156;DHT22;11746;50.876;4.246;2022-11-20T10:04:10;8.20;99.90
23156;DHT22;11746;50.876;4.246;2022-11-20T10:06:56;8.30;99.90
23156;DHT22;11746;50.876;4.246;2022-11-20T10:09:30;8.40;99.90
23156;DHT22;11746;50.876;4.246;2022-11-20T10:14:56;8.40;99.90
23156;DHT22;11746;50.876;4.246;2022-11-20T10:22:59;8.50;99.90
23156;DHT22;11746;50.876;4.246;2022-11-20T10:26:12;8.50;99.90
23156;DHT22;11746;50.876;4.246;2022-11-20T10:29:18;8.70;99.90
23156;DHT22;11746;50.876;4.246;2022-11-20T10:31:45;8.80;99.90
23156;DHT22;11746;50.876;4.246;2022-11-20T10:34:26;8.90;99.90
23156;DHT22;11746;50.876;4.246;2022-11-20T10:37:10;9.10;99.90
23156;DHT22;11746;50.876;4.246;2022-11-20T10:39:48;9.00;99.90
23156;DHT22;11746;50.876;4.246;2022-11-20T10:48:10;9.10;99.90
23156;DHT22;11746;50.876;4.246;2022-11-20T10:50:44;9.00;99.90
23156;DHT22;11746;50.876;4.246;2022-11-20T10:55:55;8.90;99.90
23156;DHT22;11746;50.876;4.246;2022-11-20T10:58:58;8.90;99.90
23156;DHT22;11746;50.876;4.246;2022-11-20T11:01:25;8.80;99.90
23156;DHT22;11746;50.876;4.246;2022-11-20T11:03:53;8.90;99.90
23156;DHT22;11746;50.876;4.246;2022-11-20T11:06:42;8.90;99.90
23156;DHT22;11746;50.876;4.246;2022-11-20T11:09:16;8.80;99.90
23156;DHT22;11746;50.876;4.246;2022-11-20T11:11:43;8.90;99.90
23156;DHT22;11746;50.876;4.246;2022-11-20T11:14:14;8.90;99.90
23156;DHT22;11746;50.876;4.246;2022-11-20T11:16:57;9.10;99.90
23156;DHT22;11746;50.876;4.246;2022-11-20T11:19:23;9.10;99.90
23156;DHT22;11746;50.876;4.246;2022-11-20T11:21:54;9.20;99.90
23156;DHT22;11746;50.876;4.246;2022-11-20T11:24:27;9.10;99.90
23156;DHT22;11746;50.876;4.246;2022-11-20T11:29:23;9.30;99.90
23156;DHT22;11746;50.876;4.246;2022-11-20T11:32:13;9.20;99.90
23156;DHT22;11746;50.876;4.246;2022-11-20T11:34:39;9.30;99.90
23156;DHT22;11746;50.876;4.246;2022-11-20T11:37:10;9.30;99.90
23156;DHT22;11746;50.876;4.246;2022-11-20T11:39:42;9.20;99.90
23156;DHT22;11746;50.876;4.246;2022-11-20T11:42:18;9.00;99.90
23156;DHT22;11746;50.876;4.246;2022-11-20T11:44:46;9.00;99.90
23156;DHT22;11746;50.876;4.246;2022-11-20T11:47:44;9.00;99.90
23156;DHT22;11746;50.876;4.246;2022-11-20T11:52:55;8.90;99.90
23156;DHT22;11746;50.876;4.246;2022-11-20T12:01:19;8.90;99.90
23156;DHT22;11746;50.876;4.246;2022-11-20T12:04:04;8.80;99.90
23156;DHT22;11746;50.876;4.246;2022-11-20T12:06:34;8.80;99.90
23156;DHT22;11746;50.876;4.246;2022-11-20T12:09:08;8.70;99.90
23156;DHT22;11746;50.876;4.246;2022-11-20T12:11:58;8.60;99.90
23156;DHT22;11746;50.876;4.246;2022-11-20T12:14:37;8.60;99.90
23156;DHT22;11746;50.876;4.246;2022-11-20T12:17:05;8.60;99.90
23156;DHT22;11746;50.876;4.246;2022-11-20T12:19:35;8.50;99.90
23156;DHT22;11746;50.876;4.246;2022-11-20T12:41:21;8.50;99.90
23156;DHT22;11746;50.876;4.246;2022-11-20T12:44:43;8.40;99.90
23156;DHT22;11746;50.876;4.246;2022-11-20T12:50:45;8.60;99.90
23156;DHT22;11746;50.876;4.246;2022-11-20T12:53:30;8.60;99.90
23156;DHT22;11746;50.876;4.246;2022-11-20T13:06:52;8.80;99.90
23156;DHT22;11746;50.876;4.246;2022-11-20T13:09:20;8.80;99.90
23156;DHT22;11746;50.876;4.246;2022-11-20T13:14:42;8.60;99.90
23156;DHT22;11746;50.876;4.246;2022-11-20T13:17:12;8.70;99.90
23156;DHT22;11746;50.876;4.246;2022-11-20T13:19:40;8.60;99.90
23156;DHT22;11746;50.876;4.246;2022-11-20T13:22:09;8.60;99.90
23156;DHT22;11746;50.876;4.246;2022-11-20T13:24:37;8.60;99.90
23156;DHT22;11746;50.876;4.246;2022-11-20T13:29:42;8.70;99.90
23156;DHT22;11746;50.876;4.246;2022-11-20T13:32:16;8.70;99.90
23156;DHT22;11746;50.876;4.246;2022-11-20T13:34:57;8.60;99.90
23156;DHT22;11746;50.876;4.246;2022-11-20T13:37:31;8.60;99.90
23156;DHT22;11746;50.876;4.246;2022-11-20T13:43:02;8.40;99.90
23156;DHT22;11746;50.876;4.246;2022-11-20T13:45:31;8.30;99.90
23156;DHT22;11746;50.876;4.246;2022-11-20T13:48:20;8.30;99.90
23156;DHT22;11746;50.876;4.246;2022-11-20T13:56:24;8.40;99.90
23156;DHT22;11746;50.876;4.246;2022-11-20T13:59:08;8.40;99.90
23156;DHT22;11746;50.876;4.246;2022-11-20T14:01:39;8.30;99.90
23156;DHT22;11746;50.876;4.246;2022-11-20T14:04:08;8.30;99.90
23156;DHT22;11746;50.876;4.246;2022-11-20T14:06:46;8.30;99.90
23156;DHT22;11746;50.876;4.246;2022-11-20T14:09:29;8.30;99.90
23156;DHT22;11746;50.876;4.246;2022-11-20T14:11:57;8.20;99.90
23156;DHT22;11746;50.876;4.246;2022-11-20T14:14:28;8.20;99.90
23156;DHT22;11746;50.876;4.246;2022-11-20T14:17:53;8.20;99.90
23156;DHT22;11746;50.876;4.246;2022-11-20T14:19:54;8.20;99.90
23156;DHT22;11746;50.876;4.246;2022-11-20T14:22:25;8.20;99.90
23156;DHT22;11746;50.876;4.246;2022-11-20T14:27:38;8.20;99.90
23156;DHT22;11746;50.876;4.246;2022-11-20T14:30:18;8.20;99.90
23156;DHT22;11746;50.876;4.246;2022-11-20T14:32:46;8.30;99.90
23156;DHT22;11746;50.876;4.246;2022-11-20T14:35:18;8.20;99.90
23156;DHT22;11746;50.876;4.246;2022-11-20T14:37:48;8.30;99.90
23156;DHT22;11746;50.876;4.246;2022-11-20T14:40:33;8.30;99.90
23156;DHT22;11746;50.876;4.246;2022-11-20T14:43:26;8.30;99.90
23156;DHT22;11746;50.876;4.246;2022-11-20T14:46:00;8.30;99.90
23156;DHT22;11746;50.876;4.246;2022-11-20T14:48:31;8.30;99.90
23156;DHT22;11746;50.876;4.246;2022-11-20T14:51:00;8.20;99.90
23156;DHT22;11746;50.876;4.246;2022-11-20T14:53:26;8.30;99.90
23156;DHT22;11746;50.876;4.246;2022-11-20T14:55:58;8.40;99.90
23156;DHT22;11746;50.876;4.246;2022-11-20T14:58:27;8.40;99.90
23156;DHT22;11746;50.876;4.246;2022-11-20T15:01:01;8.50;99.90
23156;DHT22;11746;50.876;4.246;2022-11-20T15:03:39;8.50;99.90
23156;DHT22;11746;50.876;4.246;2022-11-20T15:06:07;8.50;99.90
23156;DHT22;11746;50.876;4.246;2022-11-20T15:08:34;8.50;99.90
23156;DHT22;11746;50.876;4.246;2022-11-20T15:11:00;8.60;99.90
23156;DHT22;11746;50.876;4.246;2022-11-20T15:13:31;8.70;99.90
23156;DHT22;11746;50.876;4.246;2022-11-20T15:15:59;8.70;99.90
23156;DHT22;11746;50.876;4.246;2022-11-20T15:18:36;8.70;99.90
23156;DHT22;11746;50.876;4.246;2022-11-20T15:21:11;8.70;99.90
23156;DHT22;11746;50.876;4.246;2022-11-20T15:23:38;8.70;99.90
23156;DHT22;11746;50.876;4.246;2022-11-20T15:26:08;8.70;99.90
23156;DHT22;11746;50.876;4.246;2022-11-20T15:28:37;8.70;99.90
23156;DHT22;11746;50.876;4.246;2022-11-20T15:31:05;8.70;99.90
23156;DHT22;11746;50.876;4.246;2022-11-20T15:33:32;8.80;99.90
23156;DHT22;11746;50.876;4.246;2022-11-20T15:35:58;8.80;99.90
23156;DHT22;11746;50.876;4.246;2022-11-20T15:38:24;8.90;99.90
23156;DHT22;11746;50.876;4.246;2022-11-20T15:40:50;8.90;99.90
23156;DHT22;11746;50.876;4.246;2022-11-20T15:43:16;9.00;99.90
23156;DHT22;11746;50.876;4.246;2022-11-20T15:45:57;9.00;99.90
23156;DHT22;11746;50.876;4.246;2022-11-20T15:48:27;8.90;99.90
23156;DHT22;11746;50.876;4.246;2022-11-20T15:53:38;8.90;99.90
23156;DHT22;11746;50.876;4.246;2022-11-20T15:56:11;9.00;99.90
23156;DHT22;11746;50.876;4.246;2022-11-20T15:58:37;9.00;99.90
23156;DHT22;11746;50.876;4.246;2022-11-20T16:01:05;9.00;99.90
23156;DHT22;11746;50.876;4.246;2022-11-20T16:03:31;9.00;99.90
23156;DHT22;11746;50.876;4.246;2022-11-20T16:05:56;9.00;99.90
23156;DHT22;11746;50.876;4.246;2022-11-20T16:08:22;9.00;99.90
23156;DHT22;11746;50.876;4.246;2022-11-20T16:10:48;9.10;99.90
23156;DHT22;11746;50.876;4.246;2022-11-20T16:13:16;9.10;99.90
23156;DHT22;11746;50.876;4.246;2022-11-20T16:16:03;9.10;99.90
23156;DHT22;11746;50.876;4.246;2022-11-20T16:18:30;9.10;99.90
23156;DHT22;11746;50.876;4.246;2022-11-20T16:20:58;9.10;99.90
23156;DHT22;11746;50.876;4.246;2022-11-20T16:23:24;9.10;99.90
23156;DHT22;11746;50.876;4.246;2022-11-20T16:25:53;9.00;99.90
23156;DHT22;11746;50.876;4.246;2022-11-20T16:28:19;9.00;99.90
23156;DHT22;11746;50.876;4.246;2022-11-20T16:30:47;9.00;99.90
23156;DHT22;11746;50.876;4.246;2022-11-20T16:33:17;9.00;99.90
23156;DHT22;11746;50.876;4.246;2022-11-20T16:35:43;9.00;99.90
23156;DHT22;11746;50.876;4.246;2022-11-20T16:38:13;8.90;99.90
23156;DHT22;11746;50.876;4.246;2022-11-20T16:40:42;8.90;99.90
23156;DHT22;11746;50.876;4.246;2022-11-20T16:43:09;8.90;99.90
23156;DHT22;11746;50.876;4.246;2022-11-20T16:45:40;8.90;99.90
23156;DHT22;11746;50.876;4.246;2022-11-20T16:48:09;8.90;99.90
23156;DHT22;11746;50.876;4.246;2022-11-20T16:50:36;8.90;99.90
23156;DHT22;11746;50.876;4.246;2022-11-20T16:53:02;8.90;99.90
23156;DHT22;11746;50.876;4.246;2022-11-20T16:55:27;8.90;99.90
23156;DHT22;11746;50.876;4.246;2022-11-20T16:57:54;8.90;99.90
23156;DHT22;11746;50.876;4.246;2022-11-20T17:00:19;8.90;99.90
23156;DHT22;11746;50.876;4.246;2022-11-20T17:02:48;8.80;99.90
23156;DHT22;11746;50.876;4.246;2022-11-20T17:05:16;8.90;99.90
23156;DHT22;11746;50.876;4.246;2022-11-20T17:07:42;8.90;99.90
23156;DHT22;11746;50.876;4.246;2022-11-20T17:10:08;8.90;99.90
23156;DHT22;11746;50.876;4.246;2022-11-20T17:12:33;8.80;99.90
23156;DHT22;11746;50.876;4.246;2022-11-20T17:15:12;8.80;99.90
23156;DHT22;11746;50.876;4.246;2022-11-20T17:17:41;8.80;99.90
23156;DHT22;11746;50.876;4.246;2022-11-20T17:20:07;8.80;99.90
23156;DHT22;11746;50.876;4.246;2022-11-20T17:22:32;8.80;99.90
23156;DHT22;11746;50.876;4.246;2022-11-20T17:24:58;8.90;99.90
23156;DHT22;11746;50.876;4.246;2022-11-20T17:27:24;8.90;99.90
23156;DHT22;11746;50.876;4.246;2022-11-20T17:29:51;9.00;99.90
23156;DHT22;11746;50.876;4.246;2022-11-20T17:32:19;8.90;99.90
23156;DHT22;11746;50.876;4.246;2022-11-20T17:34:44;9.00;99.90
23156;DHT22;11746;50.876;4.246;2022-11-20T17:37:10;8.90;99.90
23156;DHT22;11746;50.876;4.246;2022-11-20T17:39:36;8.80;99.90